Aérodrome :
LOGIN :

S'inscrire | Disclaimer

   EN    FR    IT 

 










Légende :    VFR   VFR Marginal   IFR   IFR Intensif   IFR Très Intensif
Visi : 
Plafond : 
>= 8 km
>= 3000ft
5 à 8 km
1000 à 3000 ft
1500m à 5 km
500 à 1000 ft
800 à 1500m
200 à 500 ft
< 800m
< 200 ft
Symboles :   Orages  Brouillard  Fortes neiges  Fortes précipitations  Vent > 20 kt
SIGMETs :   Divers  Orages  Givrage  Turbulence  Onde Orograph.  Cendres Volcan.






- Altitude de l'aérodrome : 794 ft


LKCV - Čáslav Air Base

DERNIER METAR :
  • 250730Z 05005KT 350V100 CAVOK 21/12 Q1018 NOSIG RMK BLU BLU

METARs EXPIRÉS :
  • 250700Z 02004KT 350V050 CAVOK 19/12 Q1018 NOSIG RMK BLU BLU
  • 250630Z 30003KT 250V350 CAVOK 18/12 Q1018 NOSIG RMK BLU BLU
  • 250600Z 29003KT 250V320 CAVOK 16/12 Q1018 NOSIG RMK BLU BLU
  • 250530Z 30003KT CAVOK 14/11 Q1018 NOSIG RMK BLU BLU
  • 250500Z VRB02KT CAVOK 13/11 Q1018 NOSIG RMK BLU BLU
  • 250430Z 00000KT CAVOK 12/10 Q1018 NOSIG RMK BLU BLU
  • 250400Z 00000KT CAVOK 11/09 Q1018 NOSIG RMK BLU BLU
  • 250330Z VRB02KT CAVOK 10/09 Q1018 NOSIG RMK BLU BLU
  • 250300Z 22002KT CAVOK 10/09 Q1018 NOSIG RMK BLU BLU

TAF TAF LKCV
Valide du 25 à 06h jusqu'au 26 à 06h UTC


250500Z 2506/2606 07006KT CAVOK
TEMPO 2506/2509 VRB02KT
TEMPO 2508/2513 BKN040
TEMPO 2510/2518 09010KT



MET'MAP, la Météo Aéronautique d'un coup d'oeil ! - Copyright ORBIFLY Décembre 2007 - Disclaimer

ORBIFLY MET'MAP TEAM :

Programmation & Développement : Alexandra Zaïnal
Sur une idée originale de : Baudouin d'Aumeries
Soutien technique & logistique : Manuel Goepfert
Assistance : Marc-Olivier Méhu




SOURCES & CREDITS :

   NOAA